createdAt,value
2023-08-30T00:01:13.297Z,19.73
2023-08-30T00:03:40.243Z,19.74
2023-08-30T00:06:07.860Z,19.71
2023-08-30T00:08:34.813Z,19.67
2023-08-30T00:11:03.272Z,19.74
2023-08-30T00:13:34.539Z,19.75
2023-08-30T00:16:03.282Z,19.77
2023-08-30T00:18:30.180Z,19.79
2023-08-30T00:20:58.122Z,19.77
2023-08-30T00:23:24.882Z,19.81
2023-08-30T00:25:51.765Z,19.79
2023-08-30T00:28:18.391Z,19.80
2023-08-30T00:30:45.015Z,19.78
2023-08-30T00:33:11.820Z,19.73
2023-08-30T00:35:38.417Z,19.76
2023-08-30T00:38:05.002Z,19.70
2023-08-30T00:40:39.926Z,19.72
2023-08-30T00:43:07.807Z,19.66
2023-08-30T00:45:35.800Z,19.70
2023-08-30T00:48:02.623Z,19.68
2023-08-30T00:50:29.312Z,19.56
2023-08-30T00:52:56.057Z,19.50
2023-08-30T00:55:22.855Z,19.52
2023-08-30T00:57:49.480Z,19.64
2023-08-30T01:00:16.389Z,19.59
2023-08-30T01:02:43.132Z,19.64
2023-08-30T01:05:11.041Z,19.49
2023-08-30T01:07:37.749Z,19.64
2023-08-30T01:10:04.663Z,19.60
2023-08-30T01:12:40.991Z,19.65
2023-08-30T01:15:16.584Z,19.62
2023-08-30T01:17:44.689Z,19.55
2023-08-30T01:20:15.870Z,19.54
2023-08-30T01:22:54.902Z,19.57
2023-08-30T01:25:36.730Z,19.49
2023-08-30T01:28:09.153Z,19.40
2023-08-30T01:30:40.410Z,19.46
2023-08-30T01:33:09.318Z,19.51
2023-08-30T01:35:38.676Z,19.53
2023-08-30T01:38:06.741Z,19.48
2023-08-30T01:40:40.318Z,19.49
2023-08-30T01:43:08.709Z,19.45
2023-08-30T01:45:39.420Z,19.33
2023-08-30T01:48:08.786Z,19.38
2023-08-30T01:50:35.890Z,19.25
2023-08-30T01:53:06.768Z,19.23
2023-08-30T01:55:35.559Z,19.19
2023-08-30T01:58:04.366Z,19.13
2023-08-30T02:00:31.224Z,19.11
2023-08-30T02:02:58.457Z,19.09
2023-08-30T02:05:25.276Z,19.01
2023-08-30T02:08:04.862Z,19.00
2023-08-30T02:10:44.011Z,18.99
2023-08-30T02:13:12.148Z,18.90
2023-08-30T02:15:42.870Z,18.91
2023-08-30T02:18:11.129Z,18.73
2023-08-30T02:20:38.181Z,18.84
2023-08-30T02:23:14.290Z,18.75
2023-08-30T02:25:41.977Z,18.71
2023-08-30T02:28:08.882Z,18.68
2023-08-30T02:30:35.788Z,18.61
2023-08-30T02:33:02.526Z,18.54
2023-08-30T02:35:29.342Z,18.65
2023-08-30T02:37:56.233Z,18.63
2023-08-30T02:40:22.920Z,18.62
2023-08-30T02:42:49.606Z,18.58
2023-08-30T02:45:16.373Z,18.64
2023-08-30T02:47:43.262Z,18.69
2023-08-30T02:50:10.165Z,18.69
2023-08-30T02:52:36.874Z,18.74
2023-08-30T02:55:04.318Z,18.70
2023-08-30T02:57:30.888Z,18.76
2023-08-30T02:59:57.447Z,18.76
2023-08-30T03:02:24.488Z,18.77
2023-08-30T03:04:51.117Z,18.83
2023-08-30T03:07:17.765Z,18.86
2023-08-30T03:09:44.918Z,18.84
2023-08-30T03:12:11.512Z,18.87
2023-08-30T03:14:38.153Z,18.81
2023-08-30T03:17:05.271Z,18.76
2023-08-30T03:19:31.871Z,18.64
2023-08-30T03:21:58.532Z,18.56
2023-08-30T03:24:25.408Z,18.41
2023-08-30T03:26:52.072Z,18.30
2023-08-30T03:29:18.639Z,18.28
2023-08-30T03:31:45.538Z,18.26
2023-08-30T03:34:12.436Z,18.25
2023-08-30T03:36:40.312Z,18.19
2023-08-30T03:39:07.721Z,18.23
2023-08-30T03:41:34.586Z,18.23
2023-08-30T03:44:01.316Z,18.24
2023-08-30T03:46:28.013Z,18.34
2023-08-30T03:48:54.735Z,18.36
2023-08-30T03:51:21.482Z,18.30
2023-08-30T03:53:48.262Z,18.21
2023-08-30T03:56:14.986Z,18.08
2023-08-30T03:58:41.634Z,18.14
2023-08-30T04:01:08.364Z,18.08
2023-08-30T04:03:35.397Z,18.16
2023-08-30T04:06:02.086Z,18.15
2023-08-30T04:08:28.779Z,18.21
2023-08-30T04:10:55.619Z,18.16
2023-08-30T04:13:22.689Z,18.17
2023-08-30T04:15:49.559Z,18.28
2023-08-30T04:18:16.360Z,18.32
2023-08-30T04:20:47.066Z,18.33
2023-08-30T04:23:14.924Z,18.32
2023-08-30T04:25:41.810Z,18.27
2023-08-30T04:28:08.653Z,18.19
2023-08-30T04:30:37.898Z,18.17
2023-08-30T04:33:06.375Z,18.12
2023-08-30T04:35:33.193Z,18.09
2023-08-30T04:38:00.832Z,18.14
2023-08-30T04:40:27.740Z,18.14
2023-08-30T04:42:54.512Z,18.20
2023-08-30T04:45:21.356Z,18.21
2023-08-30T04:47:48.036Z,18.27
2023-08-30T04:50:15.108Z,18.31
2023-08-30T04:52:43.637Z,18.35
2023-08-30T04:55:10.665Z,18.34
2023-08-30T04:57:37.267Z,18.42
2023-08-30T05:00:06.119Z,18.40
2023-08-30T05:02:33.241Z,18.41
2023-08-30T05:05:00.064Z,18.46
2023-08-30T05:07:26.693Z,18.48
2023-08-30T05:09:53.438Z,18.53
2023-08-30T05:12:20.170Z,18.57
2023-08-30T05:14:46.913Z,18.59
2023-08-30T05:17:13.573Z,18.63
2023-08-30T05:19:40.301Z,18.67
2023-08-30T05:22:06.909Z,18.70
2023-08-30T05:24:34.949Z,18.73
2023-08-30T05:27:01.579Z,18.70
2023-08-30T05:29:28.163Z,18.73
2023-08-30T05:31:55.483Z,18.75
2023-08-30T05:34:22.227Z,18.76
2023-08-30T05:36:48.793Z,18.73
2023-08-30T05:39:15.833Z,18.64
2023-08-30T05:41:43.124Z,18.68
2023-08-30T05:44:10.278Z,18.69
2023-08-30T05:46:37.091Z,18.67
2023-08-30T05:49:04.286Z,18.69
2023-08-30T05:51:30.945Z,18.67
2023-08-30T05:53:57.640Z,18.68
2023-08-30T05:56:24.264Z,18.71
2023-08-30T05:58:50.939Z,18.69
2023-08-30T06:01:20.175Z,18.72
2023-08-30T06:03:47.919Z,18.74
2023-08-30T06:06:15.436Z,18.73
2023-08-30T06:08:42.352Z,18.78
2023-08-30T06:11:09.213Z,18.76
2023-08-30T06:13:36.108Z,18.81
2023-08-30T06:16:03.680Z,18.81
2023-08-30T06:18:32.366Z,18.83
2023-08-30T06:20:59.249Z,18.87
2023-08-30T06:23:26.276Z,18.90
2023-08-30T06:25:59.347Z,18.89
2023-08-30T06:28:26.167Z,18.96
2023-08-30T06:30:53.253Z,19.01
2023-08-30T06:33:20.068Z,19.11
2023-08-30T06:35:49.820Z,19.13
2023-08-30T06:38:16.680Z,19.16
2023-08-30T06:40:47.159Z,19.22
2023-08-30T06:43:14.443Z,19.30
2023-08-30T06:45:42.066Z,19.37
2023-08-30T06:48:12.322Z,19.40
2023-08-30T06:50:39.390Z,19.45
2023-08-30T06:53:06.810Z,19.49
2023-08-30T06:55:34.667Z,19.55
2023-08-30T06:58:01.305Z,19.56
2023-08-30T07:00:28.022Z,19.54
2023-08-30T07:02:54.745Z,19.59
2023-08-30T07:05:21.582Z,19.63
2023-08-30T07:07:48.444Z,19.55
2023-08-30T07:10:15.086Z,19.59
2023-08-30T07:12:41.712Z,19.58
2023-08-30T07:15:08.889Z,19.66
2023-08-30T07:17:52.065Z,19.75
2023-08-30T07:20:19.735Z,19.79
2023-08-30T07:22:46.593Z,19.86
2023-08-30T07:25:14.837Z,19.94
2023-08-30T07:27:41.724Z,20.00
2023-08-30T07:30:08.872Z,20.01
2023-08-30T07:32:37.374Z,20.02
2023-08-30T07:35:04.501Z,20.07
2023-08-30T07:37:31.290Z,20.13
2023-08-30T07:39:58.064Z,20.20
2023-08-30T07:42:25.082Z,20.24
2023-08-30T07:44:52.145Z,20.31
2023-08-30T07:47:18.807Z,20.30
2023-08-30T07:49:45.444Z,20.42
2023-08-30T07:52:12.224Z,20.45
2023-08-30T07:54:40.137Z,20.57
2023-08-30T07:57:07.674Z,20.58
2023-08-30T07:59:37.230Z,20.61
2023-08-30T08:02:08.265Z,20.61
2023-08-30T08:04:35.987Z,20.58
2023-08-30T08:07:04.355Z,20.54
2023-08-30T08:09:31.674Z,20.58
2023-08-30T08:11:58.398Z,20.59
2023-08-30T08:14:25.884Z,20.64
2023-08-30T08:16:52.768Z,20.65
2023-08-30T08:19:24.397Z,20.71
2023-08-30T08:21:54.876Z,20.69
2023-08-30T08:24:22.328Z,20.67
2023-08-30T08:26:49.059Z,20.68
2023-08-30T08:29:15.653Z,20.74
2023-08-30T08:31:42.227Z,20.82
2023-08-30T08:34:13.700Z,20.88
2023-08-30T08:36:41.669Z,20.95
2023-08-30T08:39:08.230Z,21.04
2023-08-30T08:41:42.987Z,21.11
2023-08-30T08:44:10.647Z,21.25
2023-08-30T08:46:40.320Z,21.35
2023-08-30T08:49:14.626Z,21.44
2023-08-30T08:51:43.391Z,21.61
2023-08-30T08:54:11.657Z,21.76
2023-08-30T08:56:39.371Z,21.85
2023-08-30T08:59:10.092Z,22.06
2023-08-30T09:01:41.065Z,22.14
2023-08-30T09:04:12.235Z,22.21
2023-08-30T09:06:41.061Z,22.38
2023-08-30T09:09:09.757Z,22.47
2023-08-30T09:11:49.918Z,22.58
2023-08-30T09:14:18.242Z,22.60
2023-08-30T09:16:55.712Z,22.66
2023-08-30T09:19:23.204Z,22.69
2023-08-30T09:21:54.296Z,22.66
2023-08-30T09:24:21.795Z,22.61
2023-08-30T09:26:51.210Z,22.54
2023-08-30T09:29:19.860Z,22.53
2023-08-30T09:31:47.372Z,22.65
2023-08-30T09:34:14.249Z,22.78
2023-08-30T09:36:44.258Z,22.94
2023-08-30T09:39:15.408Z,23.09
2023-08-30T09:41:43.769Z,23.19
2023-08-30T09:44:15.063Z,23.33
2023-08-30T09:47:00.175Z,23.41
2023-08-30T09:49:27.717Z,23.45
2023-08-30T09:51:55.809Z,23.53
2023-08-30T09:56:57.631Z,23.82
2023-08-30T09:59:24.721Z,23.90
2023-08-30T10:01:53.591Z,24.04
2023-08-30T10:04:21.614Z,24.20
2023-08-30T10:06:49.479Z,24.50
2023-08-30T10:09:18.030Z,24.71
2023-08-30T10:11:48.149Z,24.88
2023-08-30T10:14:15.410Z,25.06
2023-08-30T10:16:44.891Z,25.13
2023-08-30T10:19:23.232Z,25.32
2023-08-30T10:22:00.468Z,25.45
2023-08-30T10:24:35.066Z,25.49
2023-08-30T10:27:07.939Z,25.62
2023-08-30T10:29:37.264Z,25.56
2023-08-30T10:32:07.971Z,25.66
2023-08-30T10:34:35.873Z,25.82
2023-08-30T10:37:04.479Z,25.87
2023-08-30T10:39:41.628Z,25.84
2023-08-30T10:42:12.970Z,25.93
2023-08-30T10:47:40.428Z,26.24
2023-08-30T10:50:12.159Z,26.45
2023-08-30T10:52:39.317Z,26.64
2023-08-30T10:55:11.042Z,26.78
2023-08-30T10:57:39.192Z,26.90
2023-08-30T11:00:05.999Z,27.01
2023-08-30T11:02:33.916Z,27.07
2023-08-30T11:05:01.230Z,27.11
2023-08-30T11:07:28.657Z,27.18
2023-08-30T11:09:55.639Z,27.24
2023-08-30T11:12:26.522Z,27.26
2023-08-30T11:14:54.175Z,27.27
2023-08-30T11:17:21.179Z,27.31
2023-08-30T11:19:51.926Z,27.37
2023-08-30T11:22:19.677Z,27.44
2023-08-30T11:24:50.543Z,27.55
2023-08-30T11:27:20.109Z,27.65
2023-08-30T11:29:46.813Z,27.76
2023-08-30T11:32:13.541Z,27.86
2023-08-30T11:34:40.370Z,27.73
2023-08-30T11:37:08.673Z,27.79
2023-08-30T11:39:35.405Z,27.87
2023-08-30T11:42:17.149Z,27.87
2023-08-30T11:44:46.625Z,27.90
2023-08-30T11:47:19.997Z,27.90
2023-08-30T11:49:49.549Z,28.02
2023-08-30T11:52:16.646Z,28.11
2023-08-30T11:54:43.912Z,28.20
2023-08-30T11:57:11.045Z,28.27
2023-08-30T11:59:38.207Z,28.26
2023-08-30T12:02:05.213Z,28.27
2023-08-30T12:04:32.660Z,28.27
2023-08-30T12:07:00.625Z,28.32
2023-08-30T12:09:33.731Z,28.39
2023-08-30T12:12:08.030Z,28.46
2023-08-30T12:14:36.684Z,28.53
2023-08-30T12:17:04.623Z,28.55
2023-08-30T12:19:33.157Z,28.64
2023-08-30T12:22:06.414Z,28.60
2023-08-30T12:24:46.222Z,28.60
2023-08-30T12:27:13.276Z,28.62
2023-08-30T12:29:41.137Z,28.64
2023-08-30T12:32:08.973Z,28.69
2023-08-30T12:34:35.878Z,28.72
2023-08-30T12:37:05.293Z,28.71
2023-08-30T12:39:32.623Z,28.63
2023-08-30T12:41:59.600Z,28.45
2023-08-30T12:44:26.414Z,28.31
2023-08-30T12:46:53.027Z,28.20
2023-08-30T12:49:19.844Z,28.10
2023-08-30T12:51:46.524Z,28.03
2023-08-30T12:54:13.129Z,27.99
2023-08-30T12:56:39.981Z,27.94
2023-08-30T12:59:06.535Z,27.93
2023-08-30T13:01:33.235Z,27.97
2023-08-30T13:04:00.253Z,28.06
2023-08-30T13:06:26.825Z,28.15
2023-08-30T13:08:53.426Z,28.21
2023-08-30T13:11:20.373Z,28.26
2023-08-30T13:13:47.014Z,28.31
2023-08-30T13:16:13.705Z,28.37
2023-08-30T13:18:40.635Z,28.45
2023-08-30T13:21:07.235Z,28.54
2023-08-30T13:23:33.924Z,28.61
2023-08-30T13:26:00.988Z,28.60
2023-08-30T13:28:27.582Z,28.61
2023-08-30T13:30:55.450Z,28.61
2023-08-30T13:33:22.601Z,28.61
2023-08-30T13:35:52.754Z,28.60
2023-08-30T13:38:20.198Z,28.58
2023-08-30T13:40:47.193Z,28.56
2023-08-30T13:43:19.865Z,28.54
2023-08-30T13:45:48.903Z,28.56
2023-08-30T13:48:15.856Z,28.55
2023-08-30T13:50:49.850Z,28.51
2023-08-30T13:53:22.900Z,28.39
2023-08-30T13:55:50.093Z,28.36
2023-08-30T13:58:17.107Z,28.19
2023-08-30T14:00:52.863Z,28.04
2023-08-30T14:03:19.726Z,27.90
2023-08-30T14:05:46.671Z,27.82
2023-08-30T14:08:13.478Z,27.84
2023-08-30T14:10:40.354Z,27.84
2023-08-30T14:13:07.090Z,27.88
2023-08-30T14:15:34.021Z,27.93
2023-08-30T14:18:01.300Z,27.94
2023-08-30T14:20:30.088Z,27.87
2023-08-30T14:22:56.779Z,27.82
2023-08-30T14:25:23.740Z,27.79
2023-08-30T14:27:50.558Z,27.68
2023-08-30T14:30:17.801Z,27.69
2023-08-30T14:32:44.615Z,27.59
2023-08-30T14:35:12.426Z,27.53
2023-08-30T14:37:40.633Z,27.46
2023-08-30T14:40:07.989Z,27.32
2023-08-30T14:42:35.116Z,27.23
2023-08-30T14:45:01.887Z,27.12
2023-08-30T14:47:32.460Z,26.93
2023-08-30T14:49:59.743Z,26.80
2023-08-30T14:52:26.376Z,26.60
2023-08-30T14:54:53.345Z,26.47
2023-08-30T14:57:20.325Z,26.32
2023-08-30T14:59:48.216Z,26.20
2023-08-30T15:02:16.183Z,26.09
2023-08-30T15:04:42.962Z,25.94
2023-08-30T15:07:10.486Z,25.71
2023-08-30T15:09:38.851Z,25.47
2023-08-30T15:12:06.277Z,25.39
2023-08-30T15:14:33.725Z,25.17
2023-08-30T15:17:00.758Z,25.10
2023-08-30T15:19:27.409Z,24.96
2023-08-30T15:21:54.059Z,24.85
2023-08-30T15:24:21.190Z,24.73
2023-08-30T15:26:49.085Z,24.73
2023-08-30T15:29:15.701Z,24.69
2023-08-30T15:31:42.554Z,24.64
2023-08-30T15:34:09.257Z,24.46
2023-08-30T15:36:35.997Z,23.02
2023-08-30T15:39:03.128Z,21.11
2023-08-30T15:41:30.732Z,19.75
2023-08-30T15:43:57.364Z,18.86
2023-08-30T15:46:24.279Z,18.31
2023-08-30T15:48:51.165Z,18.03
2023-08-30T15:51:24.539Z,17.73
2023-08-30T15:53:52.038Z,17.55
2023-08-30T15:56:21.144Z,17.61
2023-08-30T15:58:48.507Z,17.61
2023-08-30T16:01:16.373Z,17.49
2023-08-30T16:03:43.840Z,17.61
2023-08-30T16:06:11.452Z,17.71
2023-08-30T16:08:38.426Z,17.86
2023-08-30T16:11:06.239Z,17.97
2023-08-30T16:13:33.012Z,17.96
2023-08-30T16:16:01.475Z,17.97
2023-08-30T16:18:31.259Z,17.89
2023-08-30T16:20:58.392Z,17.86
2023-08-30T16:23:25.216Z,17.76
2023-08-30T16:25:51.898Z,17.66
2023-08-30T16:28:18.569Z,17.63
2023-08-30T16:30:45.456Z,17.63
2023-08-30T16:33:12.329Z,17.73
2023-08-30T16:35:38.931Z,17.75
2023-08-30T16:38:07.257Z,17.75
2023-08-30T16:40:35.874Z,17.79
2023-08-30T16:43:04.073Z,17.83
2023-08-30T16:45:31.278Z,17.92
2023-08-30T16:48:07.237Z,17.92
2023-08-30T16:50:37.864Z,17.97
2023-08-30T16:53:08.879Z,17.87
2023-08-30T16:55:35.714Z,18.00
2023-08-30T16:58:02.410Z,18.11
2023-08-30T17:00:29.024Z,18.17
2023-08-30T17:02:57.424Z,18.07
2023-08-30T17:05:24.502Z,18.23
2023-08-30T17:07:54.590Z,18.25
2023-08-30T17:10:24.078Z,18.14
2023-08-30T17:12:58.013Z,18.14
2023-08-30T17:15:25.699Z,18.05
2023-08-30T17:17:54.169Z,18.02
2023-08-30T17:20:21.606Z,17.91
2023-08-30T17:22:48.258Z,17.81
2023-08-30T17:25:15.001Z,17.80
2023-08-30T17:27:43.988Z,17.81
2023-08-30T17:30:14.404Z,17.77
2023-08-30T17:32:41.943Z,17.86
2023-08-30T17:35:09.273Z,17.93
2023-08-30T17:37:36.009Z,17.98
2023-08-30T17:40:02.776Z,18.03
2023-08-30T17:42:32.101Z,18.04
2023-08-30T17:44:59.817Z,18.06
2023-08-30T17:47:28.277Z,18.08
2023-08-30T17:49:55.320Z,18.11
2023-08-30T17:52:22.506Z,18.10
2023-08-30T17:54:49.222Z,18.04
2023-08-30T17:57:17.299Z,17.97
2023-08-30T17:59:44.226Z,17.93
2023-08-30T18:02:12.741Z,17.90
2023-08-30T18:04:40.454Z,17.87
2023-08-30T18:07:07.706Z,17.82
2023-08-30T18:09:34.412Z,17.74
2023-08-30T18:12:05.055Z,17.73
2023-08-30T18:14:32.074Z,17.76
2023-08-30T18:16:58.757Z,17.75
2023-08-30T18:19:25.803Z,17.71
2023-08-30T18:21:52.638Z,17.77
2023-08-30T18:24:21.457Z,17.77
2023-08-30T18:26:50.383Z,17.72
2023-08-30T18:29:20.364Z,17.70
2023-08-30T18:31:47.681Z,17.67
2023-08-30T18:34:14.773Z,17.59
2023-08-30T18:36:42.228Z,17.57
2023-08-30T18:39:09.253Z,17.54
2023-08-30T18:41:37.980Z,17.55
2023-08-30T18:44:05.104Z,17.51
2023-08-30T18:46:32.061Z,17.49
2023-08-30T18:48:59.196Z,17.46
2023-08-30T18:51:26.136Z,17.44
2023-08-30T18:53:53.237Z,17.39
2023-08-30T18:56:20.420Z,17.37
2023-08-30T18:58:47.448Z,17.33
2023-08-30T19:01:15.679Z,17.31
2023-08-30T19:03:43.540Z,17.28
2023-08-30T19:06:11.691Z,17.21
2023-08-30T19:08:38.758Z,17.24
2023-08-30T19:11:05.678Z,17.20
2023-08-30T19:13:33.520Z,17.16
2023-08-30T19:16:00.479Z,17.12
2023-08-30T19:18:29.752Z,17.14
2023-08-30T19:21:00.940Z,17.08
2023-08-30T19:23:29.392Z,17.04
2023-08-30T19:25:57.046Z,17.04
2023-08-30T19:28:23.824Z,16.93
2023-08-30T19:30:52.982Z,16.96
2023-08-30T19:33:22.345Z,16.90
2023-08-30T19:35:49.270Z,16.86
2023-08-30T19:38:16.859Z,16.82
2023-08-30T19:40:54.137Z,16.79
2023-08-30T19:43:21.143Z,16.76
2023-08-30T19:45:48.376Z,16.71
2023-08-30T19:48:15.109Z,16.68
2023-08-30T19:50:42.452Z,16.70
2023-08-30T19:53:09.089Z,16.66
2023-08-30T19:55:35.748Z,16.67
2023-08-30T19:58:04.892Z,16.69
2023-08-30T20:00:31.708Z,16.71
2023-08-30T20:02:58.438Z,16.66
2023-08-30T20:05:26.097Z,16.61
2023-08-30T20:07:53.011Z,16.64
2023-08-30T20:10:19.769Z,16.56
2023-08-30T20:12:46.677Z,16.55
2023-08-30T20:15:13.468Z,16.51
2023-08-30T20:17:40.292Z,16.50
2023-08-30T20:20:08.621Z,16.42
2023-08-30T20:22:42.300Z,16.41
2023-08-30T20:25:10.415Z,16.40
2023-08-30T20:27:37.737Z,16.37
2023-08-30T20:30:04.779Z,16.32
2023-08-30T20:32:31.873Z,16.24
2023-08-30T20:34:59.836Z,16.32
2023-08-30T20:37:26.643Z,16.24
2023-08-30T20:39:53.461Z,16.19
2023-08-30T20:42:20.108Z,16.13
2023-08-30T20:44:47.198Z,16.12
2023-08-30T20:47:16.078Z,16.11
2023-08-30T20:49:44.664Z,16.14
2023-08-30T20:52:11.371Z,16.08
2023-08-30T20:54:38.176Z,16.00
2023-08-30T20:57:05.165Z,15.99
2023-08-30T20:59:31.766Z,15.89
2023-08-30T21:01:58.786Z,15.93
2023-08-30T21:04:25.392Z,15.90
2023-08-30T21:06:51.999Z,15.94
2023-08-30T21:09:19.168Z,15.90
2023-08-30T21:11:45.913Z,15.85
2023-08-30T21:14:14.226Z,15.89
2023-08-30T21:16:41.193Z,15.84
2023-08-30T21:19:07.909Z,15.91
2023-08-30T21:21:34.802Z,15.83
2023-08-30T21:24:01.979Z,15.80
2023-08-30T21:26:28.602Z,15.77
2023-08-30T21:28:55.255Z,15.79
2023-08-30T21:31:22.173Z,15.78
2023-08-30T21:33:53.382Z,15.82
2023-08-30T21:36:20.102Z,15.80
2023-08-30T21:38:47.610Z,15.76
2023-08-30T21:41:15.206Z,15.78
2023-08-30T21:43:41.829Z,15.83
2023-08-30T21:46:08.723Z,15.83
2023-08-30T21:48:35.307Z,15.85
2023-08-30T21:51:01.981Z,15.88
2023-08-30T21:53:28.900Z,15.86
2023-08-30T21:55:55.507Z,15.85
2023-08-30T21:58:22.158Z,15.76
2023-08-30T22:00:50.144Z,15.72
2023-08-30T22:03:19.243Z,15.69
2023-08-30T22:05:45.920Z,15.67
2023-08-30T22:08:12.749Z,15.64
2023-08-30T22:10:39.361Z,15.62
2023-08-30T22:13:05.908Z,15.61
2023-08-30T22:15:33.077Z,15.58
2023-08-30T22:18:00.805Z,15.55
2023-08-30T22:20:27.447Z,15.47
2023-08-30T22:22:54.843Z,15.43
2023-08-30T22:25:21.442Z,15.45
2023-08-30T22:27:48.021Z,15.40
2023-08-30T22:30:16.092Z,15.43
2023-08-30T22:32:44.300Z,15.40
2023-08-30T22:35:12.233Z,15.34
2023-08-30T22:37:39.244Z,15.33
2023-08-30T22:40:13.397Z,15.35
2023-08-30T22:42:41.493Z,15.26
2023-08-30T22:45:09.220Z,15.31
2023-08-30T22:47:36.062Z,15.30
2023-08-30T22:50:03.384Z,15.27
2023-08-30T22:52:30.437Z,15.25
2023-08-30T22:54:57.718Z,15.29
2023-08-30T22:57:25.161Z,15.27
2023-08-30T22:59:51.897Z,15.33
2023-08-30T23:02:18.738Z,15.35
2023-08-30T23:04:45.869Z,15.36
2023-08-30T23:07:12.527Z,15.31
2023-08-30T23:09:40.396Z,15.33
2023-08-30T23:12:08.433Z,15.36
2023-08-30T23:14:35.288Z,15.32
2023-08-30T23:17:03.888Z,15.34
2023-08-30T23:19:30.953Z,15.28
2023-08-30T23:21:57.653Z,15.28
2023-08-30T23:24:24.242Z,15.28
2023-08-30T23:26:51.124Z,15.25
2023-08-30T23:29:17.748Z,15.22
2023-08-30T23:31:44.453Z,15.21
2023-08-30T23:34:11.433Z,15.17
2023-08-30T23:36:38.157Z,15.15
2023-08-30T23:39:05.312Z,15.17
2023-08-30T23:41:33.218Z,15.12
2023-08-30T23:43:59.804Z,15.19
2023-08-30T23:46:26.430Z,15.18
2023-08-30T23:48:54.430Z,15.20
2023-08-30T23:51:21.038Z,15.25
2023-08-30T23:53:47.684Z,15.30
2023-08-30T23:56:14.519Z,15.37
2023-08-30T23:58:41.114Z,15.32
